Time;durP1;ratioP1;P1;durP2;ratioP2;P2;SDS_P1;SDS_P2;PMS_P1;PMS_P2;Temp;Humidity;BMP_temperature;BMP_pressure;BME280_temperature;BME280_humidity;BME280_pressure;Samples;Min_cycle;Max_cycle;Signal;HPM_P1;HPM_P2
2021/12/08 00:00:46;;;;;;;8.23;5.87;;;5.60;69.00;;;7.63;56.61;99895.81;4937616;29;20720;-49
2021/12/08 00:03:15;;;;;;;10.83;5.70;;;5.60;68.90;;;7.61;56.23;99881.31;4937645;29;20198;-47
2021/12/08 00:05:44;;;;;;;11.30;6.57;;;5.60;68.70;;;7.62;56.36;99883.75;4936472;29;20214;-46
2021/12/08 00:08:15;;;;;;;8.83;6.53;;;5.60;68.70;;;7.57;56.41;99875.59;4936684;29;20222;-47
2021/12/08 00:13:27;;;;;;;9.00;6.13;;;5.60;68.50;;;7.60;56.61;99854.31;4937790;29;20275;-47
2021/12/08 00:16:00;;;;;;;8.83;5.57;;;5.60;68.60;;;7.57;56.38;99854.66;4940921;29;20706;-47
2021/12/08 00:18:32;;;;;;;7.73;5.83;;;5.60;68.50;;;7.50;56.67;99848.50;4940386;29;20319;-47
2021/12/08 00:21:07;;;;;;;7.70;5.27;;;5.60;68.50;;;7.57;56.56;99838.94;4940261;29;20200;-46
2021/12/08 00:23:34;;;;;;;11.10;6.53;;;5.50;68.50;;;7.67;56.34;99831.66;4940215;29;20275;-46
2021/12/08 00:26:03;;;;;;;8.00;5.83;;;5.60;68.60;;;7.76;55.99;99827.16;4940571;29;20564;-47
2021/12/08 00:28:31;;;;;;;11.20;6.07;;;5.60;68.50;;;7.66;56.11;99805.63;4939763;29;20217;-47
2021/12/08 00:31:03;;;;;;;8.47;5.93;;;5.60;68.30;;;7.68;56.33;99799.22;4940198;29;20534;-49
2021/12/08 00:33:34;;;;;;;9.83;6.33;;;5.60;68.50;;;7.61;56.20;99793.06;4939895;29;20199;-47
2021/12/08 00:36:06;;;;;;;10.77;6.30;;;5.60;68.40;;;7.68;56.03;99788.75;4939744;29;20218;-47
2021/12/08 00:38:33;;;;;;;7.53;6.03;;;5.60;68.30;;;7.71;56.06;99777.09;4939684;29;20235;-47
2021/12/08 00:41:01;;;;;;;9.17;6.43;;;5.60;68.30;;;7.70;56.17;99771.06;4939673;29;20273;-47
2021/12/08 00:43:28;;;;;;;15.90;6.40;;;5.60;68.20;;;7.82;55.79;99769.63;4940024;29;20224;-48
2021/12/08 00:45:56;;;;;;;11.23;6.30;;;5.60;68.40;;;7.75;55.78;99760.84;4940208;29;20204;-47
2021/12/08 00:48:23;;;;;;;7.23;5.83;;;5.60;68.10;;;7.80;55.89;99749.84;4939374;29;20247;-48
2021/12/08 00:50:53;;;;;;;8.83;5.97;;;5.60;68.20;;;7.75;55.79;99752.22;4939864;29;20620;-47
2021/12/08 00:53:21;;;;;;;8.37;6.33;;;5.60;68.20;;;7.72;55.82;99740.28;4943141;29;20194;-46
2021/12/08 00:55:48;;;;;;;8.37;6.33;;;5.60;68.00;;;7.74;55.76;99747.94;4944781;29;20202;-46
2021/12/08 00:58:15;;;;;;;8.83;5.90;;;5.60;68.20;;;7.73;55.73;99746.31;4939915;29;20303;-47
2021/12/08 01:00:47;;;;;;;9.40;6.77;;;5.60;68.10;;;7.62;56.00;99736.31;4940332;29;20549;-47
2021/12/08 01:03:16;;;;;;;10.77;6.80;;;5.50;68.00;;;7.49;56.65;99739.53;4940071;29;20726;-46
2021/12/08 01:05:49;;;;;;;13.70;7.20;;;5.50;68.30;;;7.45;56.63;99730.41;4940032;29;20279;-48
2021/12/08 01:08:26;;;;;;;10.40;5.87;;;5.50;68.50;;;7.49;56.71;99729.06;4938965;29;20305;-47
2021/12/08 01:10:59;;;;;;;7.87;6.67;;;5.50;68.70;;;7.53;56.83;99719.88;4939214;29;20278;-47
2021/12/08 01:13:27;;;;;;;11.57;6.30;;;5.50;68.70;;;7.61;56.30;99725.00;4939711;29;20200;-47
2021/12/08 01:15:58;;;;;;;9.90;7.27;;;5.50;68.70;;;7.48;56.53;99712.56;4939663;29;20273;-47
2021/12/08 01:18:30;;;;;;;10.57;6.13;;;5.50;68.70;;;7.52;56.41;99715.63;4939528;29;20296;-46
2021/12/08 01:21:02;;;;;;;8.93;6.47;;;5.50;68.80;;;7.63;56.21;99711.75;4939352;29;20190;-47
2021/12/08 01:23:31;;;;;;;8.67;6.10;;;5.50;68.80;;;7.59;56.65;99708.66;4939724;29;20225;-49
2021/12/08 01:25:59;;;;;;;8.37;6.47;;;5.50;68.70;;;7.51;56.60;99696.47;4938688;29;20211;-47
2021/12/08 01:28:28;;;;;;;12.40;7.07;;;5.50;68.70;;;7.49;56.40;99697.66;4938679;29;20226;-46
2021/12/08 01:30:59;;;;;;;9.90;6.53;;;5.40;68.60;;;7.49;56.65;99695.03;4939158;29;20203;-48
2021/12/08 01:33:29;;;;;;;8.47;6.03;;;5.50;68.80;;;7.54;56.68;99703.16;4939008;29;20198;-46
2021/12/08 01:35:58;;;;;;;7.47;6.03;;;5.50;68.90;;;7.54;56.34;99697.91;4939221;29;20590;-46
2021/12/08 01:38:25;;;;;;;9.23;6.83;;;5.50;68.80;;;7.66;56.27;99691.25;4938919;29;20223;-47
2021/12/08 01:40:54;;;;;;;8.80;6.53;;;5.50;68.90;;;7.73;56.09;99686.09;4939533;29;20224;-46
2021/12/08 01:43:27;;;;;;;10.87;7.30;;;5.50;68.80;;;7.78;55.93;99687.16;4925050;29;20228;-47
2021/12/08 01:46:03;;;;;;;9.53;6.70;;;5.50;68.70;;;7.71;56.11;99680.22;4940386;29;20213;-48
2021/12/08 01:48:35;;;;;;;9.10;6.27;;;5.50;68.60;;;7.64;56.38;99684.56;4938177;29;20215;-47
2021/12/08 01:51:10;;;;;;;9.83;5.93;;;5.50;68.50;;;7.72;56.09;99679.25;4921508;29;20238;-47
2021/12/08 01:53:38;;;;;;;11.37;6.70;;;5.60;68.50;;;7.78;55.94;99679.31;4937924;29;20215;-46
2021/12/08 01:56:09;;;;;;;9.57;6.67;;;5.60;68.60;;;7.83;55.89;99669.09;4938599;29;20647;-50
2021/12/08 01:58:37;;;;;;;9.90;7.70;;;5.60;68.50;;;7.89;56.01;99663.13;4939008;29;20294;-48
2021/12/08 02:01:08;;;;;;;10.83;6.63;;;5.60;68.50;;;7.81;55.74;99657.19;4938869;29;20557;-47
2021/12/08 02:03:38;;;;;;;11.00;6.97;;;5.60;68.40;;;7.66;56.32;99659.00;4939405;29;20237;-48
2021/12/08 02:06:08;;;;;;;9.57;6.83;;;5.60;68.50;;;7.64;56.17;99655.75;4938683;29;20197;-48
2021/12/08 02:08:37;;;;;;;8.73;6.97;;;5.60;68.50;;;7.65;56.54;99649.53;4938271;29;20231;-48
2021/12/08 02:11:07;;;;;;;11.73;7.00;;;5.60;68.60;;;7.71;56.37;99657.47;4938248;29;20204;-49
2021/12/08 02:13:39;;;;;;;10.97;6.97;;;5.60;68.70;;;7.72;56.25;99664.34;4938639;29;20197;-48
2021/12/08 02:16:12;;;;;;;7.13;5.83;;;5.60;68.70;;;7.76;56.19;99649.88;4938656;29;20194;-47
2021/12/08 02:18:47;;;;;;;9.97;5.67;;;5.60;68.60;;;7.88;56.03;99643.19;4938115;29;20305;-47
2021/12/08 02:21:27;;;;;;;10.50;5.97;;;5.70;68.80;;;7.94;55.69;99639.81;4938569;29;20204;-47
2021/12/08 02:23:59;;;;;;;6.50;5.43;;;5.70;68.70;;;7.98;55.90;99632.41;4939117;29;20784;-45
2021/12/08 02:26:27;;;;;;;9.23;5.37;;;5.70;68.80;;;7.96;56.14;99640.44;4939638;29;20223;-47
2021/12/08 02:28:56;;;;;;;7.13;5.67;;;5.70;69.00;;;7.91;56.35;99642.81;4939523;29;20766;-46
2021/12/08 02:32:12;;;;;;;7.83;5.63;;;5.70;69.20;;;7.94;56.46;99646.88;4940120;29;20196;-45
2021/12/08 02:48:21;;;;;;;6.77;4.50;;;5.70;70.70;;;7.79;57.85;99612.84;4949009;29;20225;-46
2021/12/08 02:50:48;;;;;;;8.63;4.67;;;5.60;71.10;;;7.69;58.27;99620.19;4940427;29;20254;-46
2021/12/08 02:53:17;;;;;;;6.40;5.00;;;5.50;71.60;;;7.62;59.19;99613.25;4940155;29;20215;-47
2021/12/08 02:55:46;;;;;;;8.67;5.23;;;5.50;72.10;;;7.70;58.71;99613.16;4940224;29;20278;-47
2021/12/08 02:58:15;;;;;;;6.97;4.70;;;5.50;72.30;;;7.67;58.93;99603.84;4939061;29;20764;-46
2021/12/08 03:00:49;;;;;;;9.13;4.90;;;5.40;73.40;;;7.62;59.70;99616.69;4938758;29;20275;-47
2021/12/08 03:03:17;;;;;;;5.13;3.70;;;5.40;73.20;;;7.65;59.63;99603.22;4939538;29;20205;-47
2021/12/08 03:05:44;;;;;;;6.03;4.13;;;5.40;73.40;;;7.55;59.84;99594.84;4938908;29;20184;-47
2021/12/08 03:08:13;;;;;;;7.93;3.97;;;5.30;73.60;;;7.48;60.04;99599.19;4938396;29;20681;-46
2021/12/08 03:10:51;;;;;;;5.77;4.40;;;5.30;73.90;;;7.46;59.86;99599.34;4938437;29;20227;-46
2021/12/08 03:13:27;;;;;;;4.67;4.17;;;5.20;74.00;;;7.41;60.43;99587.81;4938852;29;20202;-47
2021/12/08 03:15:55;;;;;;;7.63;4.33;;;5.20;74.30;;;7.38;60.49;99588.19;4939313;29;20199;-47
2021/12/08 03:18:30;;;;;;;5.03;3.70;;;5.20;74.40;;;7.40;60.47;99586.19;4938914;29;20771;-47
2021/12/08 03:20:58;;;;;;;7.70;3.83;;;5.10;74.60;;;7.42;60.66;99584.19;4940224;29;20193;-46
2021/12/08 03:23:32;;;;;;;6.23;4.27;;;5.10;74.90;;;7.42;60.59;99594.66;4938731;29;20229;-46
2021/12/08 03:26:04;;;;;;;7.03;4.00;;;5.10;75.00;;;7.40;60.85;99601.88;4939234;29;20208;-46
2021/12/08 03:28:37;;;;;;;6.00;3.83;;;5.00;75.20;;;7.33;60.91;99590.53;4939880;29;20225;-47
2021/12/08 03:31:09;;;;;;;5.70;3.80;;;5.00;75.30;;;7.27;61.26;99601.75;4938640;29;20219;-47
2021/12/08 03:33:37;;;;;;;5.07;3.90;;;5.00;75.40;;;7.23;61.57;99593.41;4938412;29;20195;-47
2021/12/08 03:36:06;;;;;;;7.33;4.83;;;5.00;75.60;;;7.20;61.11;99588.53;4937964;29;20195;-47
2021/12/08 03:38:33;;;;;;;7.27;3.60;;;4.90;75.90;;;7.22;61.24;99597.06;4938123;29;20219;-47
2021/12/08 03:41:04;;;;;;;7.27;3.63;;;4.90;76.10;;;7.24;61.49;99596.84;4938733;29;20265;-45
2021/12/08 03:43:32;;;;;;;5.80;3.97;;;4.90;76.20;;;7.20;61.63;99595.59;4938519;29;20668;-45
2021/12/08 03:46:00;;;;;;;6.70;3.87;;;4.90;76.40;;;7.17;61.57;99595.97;4938796;29;20201;-46
2021/12/08 03:48:37;;;;;;;4.97;3.47;;;4.80;76.30;;;7.11;61.88;99594.03;4937595;29;20219;-48
2021/12/08 03:51:05;;;;;;;6.87;3.67;;;4.80;76.60;;;7.11;61.90;99591.44;4937714;29;20297;-47
2021/12/08 03:53:32;;;;;;;4.53;3.47;;;4.80;76.90;;;7.08;62.04;99591.81;4937690;29;20652;-46
2021/12/08 03:56:02;;;;;;;6.17;3.50;;;4.80;77.00;;;7.11;62.26;99601.91;4937335;29;20271;-46
2021/12/08 03:58:30;;;;;;;6.13;3.90;;;4.80;77.30;;;7.07;62.25;99584.94;4936825;29;20587;-49
2021/12/08 04:00:59;;;;;;;7.77;4.00;;;4.70;77.40;;;7.02;62.92;99582.06;4936955;29;20270;-47
2021/12/08 04:03:30;;;;;;;5.93;3.70;;;4.70;77.30;;;7.00;62.38;99590.09;4936312;29;20263;-46
2021/12/08 04:06:02;;;;;;;4.93;4.00;;;4.70;77.40;;;6.93;62.68;99591.81;4937126;29;20207;-46
2021/12/08 04:08:42;;;;;;;5.27;3.67;;;4.70;77.60;;;6.82;62.82;99598.28;4936096;29;20219;-47
2021/12/08 04:11:13;;;;;;;8.03;4.17;;;4.70;77.70;;;6.87;62.95;99599.56;4936352;29;20221;-49
2021/12/08 04:13:45;;;;;;;5.77;3.93;;;4.70;77.90;;;6.92;62.70;99597.22;4937132;29;20195;-46
2021/12/08 04:16:17;;;;;;;4.90;4.00;;;4.70;78.00;;;6.99;63.35;99603.38;4937450;29;20226;-47
2021/12/08 04:18:45;;;;;;;6.50;3.83;;;4.70;78.00;;;6.92;63.33;99607.69;4935920;29;20224;-46
2021/12/08 04:21:16;;;;;;;6.43;4.23;;;4.70;78.00;;;6.93;62.72;99593.59;4937137;29;20198;-47
2021/12/08 04:23:46;;;;;;;4.50;3.80;;;4.60;77.90;;;6.93;63.39;99598.84;4936286;29;20203;-47
2021/12/08 04:26:22;;;;;;;5.13;3.87;;;4.70;78.10;;;6.96;62.58;99604.53;4936210;29;20199;-46
2021/12/08 04:28:51;;;;;;;5.50;3.70;;;4.70;78.20;;;6.97;63.14;99610.56;4935520;29;20245;-48
2021/12/08 04:31:23;;;;;;;5.30;3.80;;;4.60;78.00;;;6.83;62.74;99599.91;4936208;29;20233;-47
2021/12/08 04:33:57;;;;;;;8.93;4.20;;;4.60;78.00;;;6.76;63.81;99591.16;4936751;29;20583;-49
2021/12/08 04:36:27;;;;;;;6.90;4.50;;;4.60;78.20;;;6.71;64.16;99603.94;4936465;29;20572;-46
2021/12/08 04:38:58;;;;;;;5.23;3.60;;;4.50;78.30;;;6.72;63.93;99602.97;4935843;29;20374;-48
2021/12/08 04:41:38;;;;;;;4.43;3.80;;;4.60;78.50;;;6.76;63.32;99619.91;4919428;29;20375;-51
2021/12/08 04:44:25;;;;;;;6.77;4.20;;;4.60;78.70;;;6.86;63.43;99629.31;4936039;29;20222;-47
2021/12/08 04:52:19;;;;;;;5.07;3.47;;;4.60;78.70;;;6.86;63.17;99603.97;4936700;29;20196;-47
2021/12/08 05:03:42;;;;;;;4.23;3.50;;;4.60;78.90;;;6.98;63.18;99618.22;4939529;29;20196;-49
2021/12/08 05:06:25;;;;;;;4.43;3.47;;;4.60;78.80;;;6.95;63.87;99615.16;4939560;29;20214;-47
2021/12/08 05:08:56;;;;;;;6.33;3.53;;;4.60;78.90;;;6.97;63.66;99606.13;4939074;29;20216;-47
2021/12/08 05:11:29;;;;;;;3.90;3.50;;;4.70;78.90;;;7.03;62.99;99604.63;4939725;29;20241;-48
2021/12/08 05:14:06;;;;;;;4.87;3.53;;;4.70;79.00;;;7.03;62.86;99609.84;4940105;29;20200;-48
2021/12/08 05:16:38;;;;;;;5.77;3.40;;;4.70;79.10;;;7.05;63.38;99613.09;4939618;29;20192;-47
2021/12/08 05:19:12;;;;;;;6.53;3.27;;;4.70;78.80;;;7.16;63.38;99610.03;4939649;29;20215;-48
2021/12/08 05:21:46;;;;;;;6.40;3.93;;;4.70;79.10;;;7.13;63.26;99595.50;4939891;29;20207;-47
2021/12/08 05:24:17;;;;;;;5.40;3.33;;;4.80;79.00;;;7.14;63.18;99610.22;4939617;29;20242;-49
2021/12/08 05:26:52;;;;;;;5.60;3.57;;;4.80;78.80;;;7.15;62.94;99617.09;4938926;29;20191;-46
2021/12/08 05:29:25;;;;;;;7.60;3.30;;;4.80;78.90;;;7.23;63.20;99605.69;4939349;29;20295;-46
2021/12/08 05:31:57;;;;;;;5.00;3.80;;;4.80;79.00;;;7.22;63.29;99609.31;4939228;29;20258;-47
2021/12/08 05:34:26;;;;;;;5.40;3.70;;;4.80;78.90;;;7.23;63.14;99619.59;4939597;29;20679;-48
2021/12/08 05:36:57;;;;;;;4.73;3.60;;;4.90;79.00;;;7.33;63.20;99616.69;4938746;29;20317;-48
2021/12/08 05:39:28;;;;;;;3.37;2.97;;;4.90;79.10;;;7.42;62.74;99611.19;4939272;29;20671;-47
2021/12/08 05:42:01;;;;;;;7.10;3.63;;;4.90;79.00;;;7.52;62.91;99616.16;4940993;29;20291;-47
2021/12/08 05:44:31;;;;;;;3.77;3.47;;;5.00;79.20;;;7.53;62.54;99615.94;4938747;29;20209;-48
2021/12/08 05:47:03;;;;;;;5.00;3.30;;;5.00;79.00;;;7.55;62.68;99625.44;4938608;29;20204;-49
2021/12/08 05:49:30;;;;;;;3.80;3.07;;;5.00;78.80;;;7.58;62.78;99628.53;4938535;29;20208;-49
2021/12/08 05:51:58;;;;;;;4.03;3.63;;;5.10;78.80;;;7.61;62.90;99617.66;4938452;29;20235;-51
2021/12/08 05:54:32;;;;;;;6.60;3.30;;;5.10;78.80;;;7.68;62.65;99626.41;4938420;29;20282;-48
2021/12/08 05:57:06;;;;;;;4.13;2.87;;;5.20;79.00;;;7.76;62.62;99635.97;4938076;29;20215;-50
2021/12/08 05:59:35;;;;;;;6.67;3.70;;;5.20;78.90;;;7.79;62.57;99631.19;4938320;29;20190;-47
2021/12/08 06:02:09;;;;;;;4.23;3.37;;;5.30;78.90;;;7.83;62.14;99632.44;4936229;29;20271;-50
2021/12/08 06:04:39;;;;;;;5.67;3.17;;;5.30;78.70;;;7.82;62.53;99641.28;4938721;29;20199;-50
2021/12/08 06:07:08;;;;;;;4.53;3.30;;;5.40;78.60;;;7.88;62.35;99635.31;4937946;29;20197;-49
2021/12/08 06:09:38;;;;;;;4.17;3.47;;;5.40;78.50;;;7.91;62.22;99627.09;4938349;29;20196;-49
2021/12/08 06:12:09;;;;;;;6.07;3.10;;;5.40;78.50;;;7.95;61.96;99644.06;4936050;29;20356;-46
2021/12/08 06:14:39;;;;;;;5.10;3.43;;;5.40;78.30;;;8.01;62.05;99643.31;4937980;29;20205;-48
2021/12/08 06:17:12;;;;;;;6.07;3.87;;;5.50;78.50;;;8.04;61.83;99639.50;4938074;29;20222;-49
2021/12/08 06:19:43;;;;;;;5.43;3.30;;;5.50;78.40;;;8.07;61.96;99637.34;4938448;29;20640;-48
2021/12/08 06:22:14;;;;;;;4.93;3.33;;;5.60;78.30;;;8.12;61.83;99642.84;4938804;29;20234;-47
2021/12/08 06:24:42;;;;;;;4.90;3.63;;;5.60;78.30;;;8.16;61.85;99630.97;4938174;29;20195;-46
2021/12/08 06:27:11;;;;;;;5.03;3.10;;;5.60;78.20;;;8.15;61.26;99629.34;4937719;29;20229;-46
2021/12/08 06:29:41;;;;;;;5.87;3.13;;;5.60;78.60;;;8.22;61.65;99639.09;4937771;29;20401;-47
2021/12/08 06:32:12;;;;;;;5.30;2.80;;;5.70;78.00;;;8.28;61.38;99638.38;4919617;29;20215;-47
2021/12/08 06:34:44;;;;;;;3.40;3.10;;;5.70;77.90;;;8.28;61.27;99643.63;4903078;29;20204;-46
2021/12/08 06:37:17;;;;;;;4.97;3.00;;;5.70;77.70;;;8.30;61.19;99654.72;4919377;29;20203;-48
2021/12/08 06:39:51;;;;;;;5.83;2.90;;;5.70;77.60;;;8.31;60.99;99653.72;4919494;29;20263;-47
2021/12/08 06:42:23;;;;;;;6.20;3.33;;;5.80;77.70;;;8.36;61.17;99665.28;4919449;29;20301;-47
2021/12/08 06:44:54;;;;;;;5.53;3.00;;;5.80;77.50;;;8.41;61.09;99664.72;4918702;29;20281;-48
2021/12/08 06:47:26;;;;;;;7.50;3.80;;;5.90;77.60;;;8.43;61.17;99658.31;4922721;29;20292;-46
2021/12/08 06:50:04;;;;;;;5.60;3.23;;;5.90;78.10;;;8.49;60.81;99667.22;4920537;29;20348;-48
2021/12/08 06:52:38;;;;;;;2.83;2.53;;;5.90;77.30;;;8.56;60.62;99668.91;4937895;29;20617;-48
2021/12/08 06:55:14;;;;;;;3.73;3.00;;;5.90;77.30;;;8.64;60.79;99678.44;4937772;29;20257;-49
2021/12/08 06:57:46;;;;;;;7.53;3.13;;;6.00;77.30;;;8.70;60.67;99675.09;4937615;29;20635;-48
2021/12/08 07:00:24;;;;;;;3.83;2.90;;;6.00;77.20;;;8.72;59.83;99681.75;4937809;29;20232;-48
2021/12/08 07:03:06;;;;;;;4.20;2.43;;;6.00;76.90;;;8.71;60.41;99672.28;4937469;29;20198;-48
2021/12/08 07:06:29;;;;;;;2.77;2.57;;;6.10;76.80;;;8.71;60.03;99667.03;4937242;29;20198;-46
2021/12/08 07:08:26;;;;;;;3.13;2.40;;;6.10;76.60;;;8.70;59.95;99668.00;4932476;29;20259;-46
2021/12/08 07:10:57;;;;;;;4.73;2.90;;;6.10;76.40;;;8.73;59.96;99674.69;4939830;29;20224;-48
2021/12/08 07:13:31;;;;;;;4.67;2.90;;;6.20;76.50;;;8.75;59.90;99675.31;4937398;29;20557;-49
2021/12/08 07:16:25;;;;;;;4.47;2.80;;;6.20;76.50;;;8.72;60.14;99673.09;4937843;29;20299;-47
2021/12/08 07:19:03;;;;;;;4.37;3.03;;;6.20;76.10;;;8.73;60.07;99672.88;4936872;29;20218;-47
2021/12/08 07:21:34;;;;;;;3.33;3.00;;;6.20;76.10;;;8.74;59.74;99679.78;4937538;29;20195;-48
2021/12/08 07:24:09;;;;;;;5.00;2.93;;;6.20;76.10;;;8.77;59.99;99682.00;4936769;29;20234;-49
2021/12/08 07:26:40;;;;;;;3.40;3.10;;;6.20;76.20;;;8.79;59.74;99679.19;4938215;29;20197;-49
2021/12/08 07:29:15;;;;;;;4.40;3.37;;;6.20;76.10;;;8.83;59.81;99690.94;4939535;29;20703;-47
2021/12/08 07:31:51;;;;;;;4.70;2.63;;;6.20;76.00;;;8.86;59.47;99690.56;4939827;29;20229;-49
2021/12/08 07:34:23;;;;;;;3.10;2.80;;;6.30;76.00;;;8.88;59.28;99699.06;4937535;29;20209;-48
2021/12/08 07:36:56;;;;;;;3.53;2.70;;;6.30;75.80;;;8.87;59.83;99697.41;4936651;29;20198;-48
2021/12/08 07:39:28;;;;;;;6.73;3.03;;;6.30;75.60;;;8.90;59.66;99704.91;4938301;29;20214;-48
2021/12/08 07:42:07;;;;;;;4.20;3.20;;;6.30;75.50;;;8.93;59.50;99693.22;4936821;29;20229;-49
2021/12/08 07:44:35;;;;;;;4.70;2.83;;;6.40;75.60;;;8.96;59.66;99701.56;4936873;29;20267;-48
2021/12/08 07:47:09;;;;;;;5.23;3.10;;;6.40;75.60;;;8.97;59.71;99697.91;4936839;29;20200;-48
2021/12/08 07:49:42;;;;;;;5.23;2.93;;;6.40;75.60;;;8.98;59.21;99703.97;4938348;29;20259;-48
2021/12/08 07:52:15;;;;;;;4.13;2.53;;;6.40;75.30;;;8.98;59.73;99714.47;4936995;29;20314;-49
2021/12/08 07:54:44;;;;;;;3.17;2.83;;;6.40;75.30;;;8.98;58.94;99714.47;4937310;29;20218;-47
2021/12/08 07:57:16;;;;;;;5.83;2.80;;;6.40;75.10;;;8.96;59.21;99717.28;4936444;29;20280;-46
2021/12/08 07:59:50;;;;;;;4.97;2.90;;;6.50;75.20;;;8.96;59.06;99719.91;4937463;29;20198;-46
2021/12/08 08:02:25;;;;;;;3.87;2.77;;;6.50;75.20;;;8.98;59.64;99717.91;4937532;29;20247;-46
2021/12/08 08:04:57;;;;;;;3.23;2.90;;;6.50;75.20;;;9.01;59.55;99714.09;4920960;29;20654;-48
2021/12/08 08:07:26;;;;;;;4.10;2.60;;;6.50;75.10;;;9.09;59.24;99727.88;4936570;29;20708;-48
2021/12/08 08:10:00;;;;;;;4.23;3.37;;;6.50;75.30;;;9.14;59.06;99725.50;4937231;29;20260;-48
2021/12/08 08:12:32;;;;;;;2.67;2.47;;;6.50;75.30;;;9.19;58.75;99723.13;4920306;29;20249;-49
2021/12/08 08:15:08;;;;;;;3.13;2.37;;;6.50;75.20;;;9.22;58.77;99727.97;4937416;29;20225;-48
2021/12/08 08:17:42;;;;;;;3.10;2.60;;;6.60;75.20;;;9.31;59.05;99734.72;4936557;29;20576;-48
2021/12/08 08:20:16;;;;;;;3.23;2.83;;;6.60;75.30;;;9.40;58.84;99728.31;4938028;29;20655;-47
2021/12/08 08:22:45;;;;;;;4.37;2.53;;;6.60;75.40;;;9.45;58.21;99739.06;4939284;29;20541;-48
2021/12/08 08:25:18;;;;;;;10.40;3.40;;;6.70;75.20;;;9.45;58.34;99752.19;4938262;29;20677;-47
2021/12/08 08:27:45;;;;;;;4.83;2.90;;;6.70;74.90;;;9.47;58.25;99752.81;4939313;29;20298;-47
2021/12/08 08:30:19;;;;;;;4.53;2.63;;;6.70;74.70;;;9.42;58.00;99747.31;4940433;29;20262;-47
2021/12/08 08:32:53;;;;;;;5.60;3.20;;;6.80;74.30;;;9.41;57.85;99758.81;4936843;29;20220;-47
2021/12/08 08:35:26;;;;;;;3.77;2.53;;;6.80;74.30;;;9.38;58.27;99761.84;4938315;29;20250;-48
2021/12/08 08:37:54;;;;;;;3.43;2.60;;;6.80;74.10;;;9.34;58.63;99757.16;4940659;29;20218;-49
2021/12/08 08:40:38;;;;;;;3.27;2.60;;;6.80;74.10;;;9.32;58.09;99754.72;4940809;29;20204;-48
2021/12/08 08:43:08;;;;;;;5.43;2.97;;;6.80;74.20;;;9.39;58.58;99755.56;4940289;29;20272;-47
2021/12/08 08:45:42;;;;;;;5.30;3.00;;;6.80;74.30;;;9.42;58.44;99754.38;4940621;29;20299;-46
2021/12/08 08:48:15;;;;;;;3.67;2.60;;;6.80;74.10;;;9.46;58.00;99772.19;4933478;29;20292;-46
2021/12/08 08:50:55;;;;;;;4.40;2.90;;;6.80;74.20;;;9.51;58.12;99764.56;4919778;29;20214;-47
2021/12/08 08:53:30;;;;;;;4.10;3.13;;;6.90;74.20;;;9.43;57.71;99756.03;4921835;29;20202;-47
2021/12/08 08:56:07;;;;;;;3.73;2.73;;;6.80;73.80;;;9.47;57.74;99758.06;4922388;29;20284;-47
2021/12/08 08:58:44;;;;;;;4.13;2.90;;;6.90;74.00;;;9.52;58.19;99768.00;4920212;29;20225;-46
2021/12/08 09:01:21;;;;;;;5.07;2.90;;;6.90;73.90;;;9.52;58.13;99774.06;4921533;29;20244;-48
2021/12/08 09:03:54;;;;;;;5.00;3.30;;;6.90;73.70;;;9.49;57.69;99766.56;4922457;29;20526;-48
2021/12/08 09:06:28;;;;;;;5.70;3.13;;;6.90;73.30;;;9.51;58.03;99767.19;4923285;29;20208;-49
2021/12/08 09:08:56;;;;;;;5.53;2.83;;;7.00;73.50;;;9.60;57.54;99778.38;4926308;29;20236;-48
2021/12/08 09:11:31;;;;;;;3.80;2.83;;;7.00;73.70;;;9.66;57.79;99782.84;4925607;29;20233;-47
2021/12/08 09:14:05;;;;;;;4.43;2.60;;;7.00;73.70;;;9.67;57.10;99778.41;4924392;29;20202;-48
2021/12/08 09:16:37;;;;;;;4.70;3.07;;;7.10;73.50;;;9.70;57.52;99788.53;4922738;29;20253;-49
2021/12/08 09:19:12;;;;;;;3.03;2.33;;;7.10;73.40;;;9.73;57.32;99788.13;4922939;29;20229;-48
2021/12/08 09:21:49;;;;;;;3.80;2.60;;;7.10;73.40;;;9.82;57.37;99781.72;4923479;29;20211;-49
2021/12/08 09:24:45;;;;;;;3.23;2.60;;;7.10;73.50;;;9.91;57.36;99796.34;4921241;29;20202;-48
2021/12/08 09:27:17;;;;;;;4.27;2.60;;;7.20;73.60;;;9.98;57.42;99791.94;4920524;29;20552;-48
2021/12/08 09:29:55;;;;;;;3.27;2.80;;;7.20;73.30;;;10.01;57.02;99788.91;4922191;29;20285;-50
2021/12/08 09:32:34;;;;;;;3.10;2.37;;;7.30;73.00;;;10.07;56.82;99790.78;4921017;29;20210;-47
2021/12/08 09:35:11;;;;;;;3.43;2.60;;;7.30;73.10;;;10.10;56.65;99790.38;4923941;29;20212;-48
2021/12/08 09:37:45;;;;;;;4.87;3.10;;;7.40;72.80;;;10.12;56.19;99793.66;4922858;29;20714;-48
2021/12/08 09:40:28;;;;;;;3.70;3.17;;;7.40;72.60;;;10.07;56.33;99785.50;4920302;29;20210;-51
2021/12/08 09:43:01;;;;;;;4.27;3.23;;;7.40;72.20;;;10.09;56.79;99794.00;4922286;29;20325;-49
2021/12/08 09:45:34;;;;;;;4.63;2.73;;;7.40;72.30;;;10.07;56.31;99804.72;4920390;29;20202;-48
2021/12/08 09:48:05;;;;;;;5.03;3.47;;;7.40;72.10;;;10.13;56.08;99787.38;4920368;29;20233;-49
2021/12/08 09:50:36;;;;;;;3.67;3.00;;;7.50;72.20;;;10.09;56.31;99788.75;4920731;29;20604;-52
2021/12/08 09:53:06;;;;;;;2.73;2.53;;;7.40;71.80;;;10.05;56.10;99795.41;4904174;29;20213;-49
2021/12/08 09:55:35;;;;;;;4.10;2.73;;;7.50;71.80;;;10.07;56.83;99794.22;4921237;29;20200;-48
2021/12/08 09:58:04;;;;;;;3.20;2.90;;;7.50;72.00;;;10.13;56.73;99793.44;4920160;29;20230;-48
2021/12/08 10:00:36;;;;;;;5.73;3.10;;;7.50;72.20;;;10.16;56.16;99800.16;4920760;29;21282;-50
2021/12/08 10:03:05;;;;;;;5.03;2.80;;;7.50;72.10;;;10.13;56.08;99800.53;4920338;29;20276;-48
2021/12/08 10:05:37;;;;;;;3.77;2.70;;;7.50;71.80;;;10.14;56.39;99805.59;4920713;29;20292;-48
2021/12/08 10:08:06;;;;;;;5.17;2.73;;;7.50;71.80;;;10.15;55.95;99814.28;4920641;29;22000;-49
2021/12/08 10:10:34;;;;;;;4.73;3.40;;;7.50;71.80;;;10.14;56.01;99810.88;4922155;29;20229;-49
2021/12/08 10:13:03;;;;;;;4.30;3.00;;;7.50;71.90;;;10.15;56.38;99809.03;4920658;29;20229;-48
2021/12/08 10:15:31;;;;;;;3.63;3.00;;;7.50;71.90;;;10.12;56.81;99812.06;4919834;29;20587;-46
2021/12/08 10:17:59;;;;;;;6.43;3.60;;;7.50;71.70;;;10.12;56.82;99812.06;4920554;29;20230;-49
2021/12/08 10:20:31;;;;;;;2.83;2.47;;;7.50;72.00;;;10.15;56.79;99803.75;4919584;29;20279;-48
2021/12/08 10:23:15;;;;;;;6.97;3.20;;;7.50;72.10;;;10.15;56.27;99801.94;4904261;29;20205;-50
2021/12/08 10:25:47;;;;;;;5.67;3.70;;;7.50;72.10;;;10.23;56.61;99800.97;4920867;29;20210;-47
2021/12/08 10:28:18;;;;;;;4.17;2.93;;;7.50;72.20;;;10.27;56.06;99796.94;4918431;29;20300;-49
2021/12/08 10:30:52;;;;;;;3.47;3.17;;;7.60;72.20;;;10.27;56.03;99796.94;4920520;29;20281;-48
2021/12/08 10:33:59;;;;;;;4.37;3.13;;;7.60;72.20;;;10.28;56.46;99803.84;4921643;29;20217;-48
2021/12/08 10:39:23;;;;;;;3.30;3.00;;;7.70;72.20;;;10.33;55.99;99801.44;4920521;29;20256;-47
2021/12/08 10:42:01;;;;;;;4.63;3.00;;;7.70;72.00;;;10.28;55.60;99814.38;4919934;29;20224;-47
2021/12/08 10:44:57;;;;;;;4.97;3.10;;;7.70;71.70;;;10.28;56.62;99803.03;4921990;29;20206;-50
2021/12/08 10:47:31;;;;;;;6.87;3.50;;;7.70;71.80;;;10.38;56.60;99803.47;4920661;29;20253;-48
2021/12/08 10:55:26;;;;;;;3.57;3.10;;;7.90;72.00;;;10.59;56.12;99791.03;4919939;29;20562;-48
2021/12/08 10:57:55;;;;;;;4.83;2.90;;;7.90;71.60;;;10.67;55.64;99803.97;4916524;29;20225;-48
2021/12/08 11:00:29;;;;;;;3.23;2.80;;;8.00;71.90;;;10.78;56.04;99795.53;4919271;29;20210;-50
2021/12/08 11:03:05;;;;;;;5.30;3.00;;;8.10;71.80;;;10.82;55.44;99794.09;4920861;29;20226;-47
2021/12/08 11:05:40;;;;;;;4.47;2.93;;;8.20;71.10;;;10.87;55.34;99788.25;4922289;29;20206;-49
2021/12/08 11:08:17;;;;;;;5.17;2.90;;;8.30;71.00;;;10.86;54.71;99792.69;4923178;29;21002;-47
2021/12/08 11:10:51;;;;;;;3.63;2.40;;;8.30;70.20;;;10.92;54.78;99769.22;4923148;29;20209;-48
2021/12/08 11:13:25;;;;;;;3.10;2.80;;;8.40;70.40;;;11.01;55.29;99784.63;4920253;29;20265;-49
2021/12/08 11:16:11;;;;;;;3.83;2.83;;;8.40;70.30;;;11.09;54.93;99786.25;4902402;29;20248;-49
2021/12/08 11:18:43;;;;;;;5.30;3.57;;;8.50;70.40;;;11.14;54.31;99783.81;4919938;29;20252;-49
2021/12/08 11:21:19;;;;;;;4.73;3.40;;;8.50;69.90;;;11.17;54.67;99788.69;4918880;29;20208;-50
2021/12/08 11:24:12;;;;;;;3.97;3.30;;;8.60;69.70;;;11.14;54.65;99779.38;4918902;29;20633;-50
2021/12/08 11:26:46;;;;;;;4.10;2.90;;;8.60;69.20;;;11.11;53.92;99784.22;4919095;29;20338;-51
2021/12/08 11:29:18;;;;;;;5.57;3.87;;;8.60;69.10;;;11.12;54.13;99777.97;4919335;29;21884;-48
2021/12/08 11:31:49;;;;;;;4.20;3.03;;;8.60;69.20;;;11.13;54.05;99788.28;4898427;29;20356;-48